createdAt,value
2023-05-10T00:00:00.298Z,0.00
2023-05-10T00:00:59.910Z,0.00
2023-05-10T00:01:59.949Z,0.00
2023-05-10T00:02:59.983Z,0.00
2023-05-10T00:03:59.945Z,0.00
2023-05-10T00:04:59.859Z,0.00
2023-05-10T00:05:59.896Z,0.00
2023-05-10T00:07:00.463Z,0.00
2023-05-10T00:07:59.826Z,0.00
2023-05-10T00:08:59.818Z,0.00
2023-05-10T00:09:59.793Z,0.00
2023-05-10T00:10:59.825Z,0.00
2023-05-10T00:11:59.768Z,0.00
2023-05-10T00:13:00.145Z,0.00
2023-05-10T00:13:59.761Z,0.00
2023-05-10T00:14:59.738Z,0.00
2023-05-10T00:16:00.574Z,0.00
2023-05-10T00:16:59.812Z,0.00
2023-05-10T00:17:59.839Z,0.00
2023-05-10T00:18:59.717Z,0.00
2023-05-10T00:19:59.728Z,0.00
2023-05-10T00:20:59.659Z,0.00
2023-05-10T00:21:59.676Z,0.00
2023-05-10T00:22:59.668Z,0.00
2023-05-10T00:23:59.647Z,0.00
2023-05-10T00:24:59.693Z,0.00
2023-05-10T00:25:59.652Z,0.00
2023-05-10T00:26:59.618Z,0.00
2023-05-10T00:27:59.626Z,0.00
2023-05-10T00:28:59.629Z,0.00
2023-05-10T00:29:59.573Z,0.00
2023-05-10T00:30:59.583Z,0.00
2023-05-10T00:31:59.649Z,0.00
2023-05-10T00:32:59.604Z,0.00
2023-05-10T00:33:59.554Z,0.00
2023-05-10T00:34:59.520Z,0.00
2023-05-10T00:35:59.549Z,0.00
2023-05-10T00:36:59.502Z,0.00
2023-05-10T00:37:59.515Z,0.00
2023-05-10T00:38:59.494Z,0.00
2023-05-10T00:39:59.484Z,0.00
2023-05-10T00:41:31.888Z,0.00
2023-05-10T00:42:33.944Z,0.00
2023-05-10T00:42:59.456Z,0.00
2023-05-10T00:43:59.546Z,0.00
2023-05-10T00:44:59.451Z,0.00
2023-05-10T00:45:59.466Z,0.00
2023-05-10T00:46:59.482Z,0.00
2023-05-10T00:47:59.392Z,0.00
2023-05-10T00:48:59.362Z,0.00
2023-05-10T00:50:00.063Z,0.00
2023-05-10T00:50:59.325Z,0.00
2023-05-10T00:51:59.308Z,0.00
2023-05-10T00:52:59.293Z,0.00
2023-05-10T00:53:59.339Z,0.00
2023-05-10T00:55:00.016Z,0.00
2023-05-10T00:55:59.267Z,0.00
2023-05-10T00:56:59.250Z,0.00
2023-05-10T00:57:59.218Z,0.00
2023-05-10T00:58:59.451Z,0.00
2023-05-10T00:59:59.223Z,0.00
2023-05-10T01:00:59.252Z,0.00
2023-05-10T01:01:59.227Z,0.00
2023-05-10T01:02:59.276Z,0.00
2023-05-10T01:03:59.143Z,0.00
2023-05-10T01:04:59.235Z,0.00
2023-05-10T01:05:59.138Z,0.00
2023-05-10T01:06:59.167Z,0.00
2023-05-10T01:07:59.140Z,0.00
2023-05-10T01:08:59.091Z,0.00
2023-05-10T01:09:59.153Z,0.00
2023-05-10T01:10:59.093Z,0.00
2023-05-10T01:11:59.078Z,0.00
2023-05-10T01:12:59.149Z,0.00
2023-05-10T01:13:59.084Z,0.00
2023-05-10T01:14:59.039Z,0.00
2023-05-10T01:15:59.076Z,0.00
2023-05-10T01:16:58.995Z,0.00
2023-05-10T01:17:59.089Z,0.00
2023-05-10T01:18:58.981Z,0.00
2023-05-10T01:19:59.010Z,0.00
2023-05-10T01:20:58.984Z,0.00
2023-05-10T01:21:58.979Z,0.00
2023-05-10T01:22:59.083Z,0.00
2023-05-10T01:23:58.952Z,0.00
2023-05-10T01:24:58.902Z,0.00
2023-05-10T01:25:58.943Z,0.00
2023-05-10T01:26:58.981Z,0.00
2023-05-10T01:27:58.911Z,0.00
2023-05-10T01:28:58.849Z,0.00
2023-05-10T01:30:21.820Z,0.00
2023-05-10T01:31:00.905Z,0.00
2023-05-10T01:31:58.885Z,0.00
2023-05-10T01:32:58.837Z,0.00
2023-05-10T01:33:58.932Z,0.00
2023-05-10T01:34:58.857Z,0.00
2023-05-10T01:35:58.794Z,0.00
2023-05-10T01:36:58.802Z,0.00
2023-05-10T01:37:58.869Z,0.00
2023-05-10T01:38:58.805Z,0.00
2023-05-10T01:39:58.758Z,0.00
2023-05-10T01:40:58.757Z,0.00
2023-05-10T01:41:58.697Z,0.00
2023-05-10T01:42:58.742Z,0.00
2023-05-10T01:43:59.730Z,0.00
2023-05-10T01:44:58.689Z,0.00
2023-05-10T01:45:58.673Z,0.00
2023-05-10T01:46:58.716Z,0.00
2023-05-10T01:47:58.654Z,0.00
2023-05-10T01:48:58.672Z,0.00
2023-05-10T01:49:58.655Z,0.00
2023-05-10T01:50:58.608Z,0.00
2023-05-10T01:51:58.584Z,0.00
2023-05-10T01:52:58.576Z,0.00
2023-05-10T01:53:58.591Z,0.00
2023-05-10T01:54:58.566Z,0.00
2023-05-10T01:55:58.586Z,0.00
2023-05-10T01:56:58.542Z,0.00
2023-05-10T01:57:58.531Z,0.00
2023-05-10T01:58:58.517Z,0.00
2023-05-10T01:59:58.526Z,0.00
2023-05-10T02:00:58.790Z,0.00
2023-05-10T02:01:58.497Z,0.00
2023-05-10T02:02:58.520Z,0.00
2023-05-10T02:03:58.545Z,0.00
2023-05-10T02:04:58.441Z,0.00
2023-05-10T02:05:58.638Z,0.00
2023-05-10T02:06:58.437Z,0.00
2023-05-10T02:07:59.387Z,0.00
2023-05-10T02:08:58.407Z,0.00
2023-05-10T02:09:58.480Z,0.00
2023-05-10T02:10:58.404Z,0.00
2023-05-10T02:11:59.402Z,0.00
2023-05-10T02:12:58.424Z,0.00
2023-05-10T02:13:58.441Z,0.00
2023-05-10T02:14:58.387Z,0.00
2023-05-10T02:15:58.373Z,0.00
2023-05-10T02:16:58.443Z,0.00
2023-05-10T02:17:58.406Z,0.00
2023-05-10T02:18:58.331Z,0.00
2023-05-10T02:19:58.409Z,0.00
2023-05-10T02:20:58.363Z,0.00
2023-05-10T02:21:58.332Z,0.00
2023-05-10T02:22:58.327Z,0.00
2023-05-10T02:23:58.289Z,0.00
2023-05-10T02:24:58.355Z,0.00
2023-05-10T02:25:58.432Z,0.00
2023-05-10T02:26:58.265Z,0.00
2023-05-10T02:27:58.237Z,0.00
2023-05-10T02:28:58.310Z,0.00
2023-05-10T02:29:58.247Z,0.00
2023-05-10T02:30:58.192Z,0.00
2023-05-10T02:31:58.271Z,0.00
2023-05-10T02:32:58.216Z,0.00
2023-05-10T02:33:58.200Z,0.00
2023-05-10T02:34:58.220Z,0.00
2023-05-10T02:35:58.188Z,0.00
2023-05-10T02:36:58.101Z,0.00
2023-05-10T02:37:58.129Z,0.00
2023-05-10T02:38:58.135Z,0.00
2023-05-10T02:39:58.114Z,0.00
2023-05-10T02:40:58.106Z,0.00
2023-05-10T02:41:58.110Z,0.00
2023-05-10T02:42:58.126Z,0.00
2023-05-10T02:43:58.060Z,0.00
2023-05-10T02:44:58.065Z,0.00
2023-05-10T02:45:58.093Z,0.00
2023-05-10T02:46:58.054Z,0.00
2023-05-10T02:47:58.112Z,0.00
2023-05-10T02:48:58.041Z,0.00
2023-05-10T02:49:58.036Z,0.00
2023-05-10T02:50:57.989Z,0.00
2023-05-10T02:51:57.955Z,0.00
2023-05-10T02:52:58.005Z,0.00
2023-05-10T02:53:58.023Z,0.00
2023-05-10T02:54:57.974Z,0.00
2023-05-10T02:55:57.981Z,0.00
2023-05-10T02:56:57.915Z,0.00
2023-05-10T02:57:57.902Z,0.00
2023-05-10T02:58:57.938Z,0.00
2023-05-10T02:59:57.953Z,0.00
2023-05-10T03:00:57.911Z,0.00
2023-05-10T03:01:57.967Z,0.00
2023-05-10T03:02:57.934Z,0.00
2023-05-10T03:03:57.948Z,0.00
2023-05-10T03:04:57.979Z,0.00
2023-05-10T03:05:57.885Z,0.00
2023-05-10T03:06:57.801Z,0.00
2023-05-10T03:07:57.820Z,0.00
2023-05-10T03:08:57.980Z,0.00
2023-05-10T03:09:57.805Z,0.00
2023-05-10T03:10:57.831Z,0.00
2023-05-10T03:11:57.768Z,0.00
2023-05-10T03:12:57.769Z,0.00
2023-05-10T03:13:57.728Z,0.00
2023-05-10T03:14:57.822Z,4.00
2023-05-10T03:15:57.781Z,4.00
2023-05-10T03:16:57.716Z,0.00
2023-05-10T03:17:57.729Z,4.00
2023-05-10T03:18:57.745Z,4.00
2023-05-10T03:19:57.704Z,8.00
2023-05-10T03:20:57.721Z,4.00
2023-05-10T03:21:57.668Z,8.00
2023-05-10T03:22:57.618Z,4.00
2023-05-10T03:23:57.639Z,8.00
2023-05-10T03:24:57.630Z,8.00
2023-05-10T03:25:57.645Z,8.00
2023-05-10T03:26:57.580Z,8.00
2023-05-10T03:27:57.666Z,12.00
2023-05-10T03:28:57.574Z,16.00
2023-05-10T03:29:57.684Z,16.00
2023-05-10T03:30:57.788Z,20.00
2023-05-10T03:31:57.643Z,20.00
2023-05-10T03:32:58.558Z,24.00
2023-05-10T03:33:57.629Z,24.00
2023-05-10T03:34:57.564Z,28.00
2023-05-10T03:35:57.556Z,28.00
2023-05-10T03:37:31.665Z,32.00
2023-05-10T03:37:57.591Z,36.00
2023-05-10T03:38:57.520Z,40.00
2023-05-10T03:39:57.562Z,44.00
2023-05-10T03:40:57.517Z,48.00
2023-05-10T03:41:57.470Z,48.00
2023-05-10T03:42:57.534Z,56.00
2023-05-10T03:43:57.460Z,60.00
2023-05-10T03:44:57.522Z,68.00
2023-05-10T03:45:57.464Z,72.00
2023-05-10T03:46:57.487Z,84.00
2023-05-10T03:47:57.510Z,92.00
2023-05-10T03:48:57.435Z,104.00
2023-05-10T03:49:57.396Z,112.00
2023-05-10T03:50:57.419Z,120.00
2023-05-10T03:51:57.438Z,132.00
2023-05-10T03:52:57.460Z,144.00
2023-05-10T03:53:57.430Z,152.00
2023-05-10T03:54:57.350Z,168.00
2023-05-10T03:55:57.346Z,184.00
2023-05-10T03:56:57.402Z,196.00
2023-05-10T03:57:57.361Z,212.00
2023-05-10T03:58:57.302Z,236.00
2023-05-10T03:59:57.309Z,260.00
2023-05-10T04:00:57.302Z,280.00
2023-05-10T04:01:57.297Z,308.00
2023-05-10T04:02:57.406Z,332.00
2023-05-10T04:03:57.529Z,356.00
2023-05-10T04:04:57.243Z,380.00
2023-05-10T04:05:57.392Z,404.00
2023-05-10T04:06:57.260Z,432.00
2023-05-10T04:07:57.233Z,456.00
2023-05-10T04:08:57.227Z,484.00
2023-05-10T04:09:57.928Z,520.00
2023-05-10T04:10:57.233Z,556.00
2023-05-10T04:11:57.178Z,592.00
2023-05-10T04:12:57.224Z,628.00
2023-05-10T04:13:57.168Z,660.00
2023-05-10T04:14:57.165Z,692.00
2023-05-10T04:15:57.915Z,716.00
2023-05-10T04:16:57.200Z,744.00
2023-05-10T04:17:57.162Z,772.00
2023-05-10T04:18:57.130Z,800.00
2023-05-10T04:19:57.085Z,832.00
2023-05-10T04:20:57.108Z,860.00
2023-05-10T04:21:57.941Z,888.00
2023-05-10T04:22:57.056Z,920.00
2023-05-10T04:23:57.311Z,960.00
2023-05-10T04:24:58.069Z,1004.00
2023-05-10T04:25:57.176Z,1048.00
2023-05-10T04:26:57.867Z,1088.00
2023-05-10T04:27:58.152Z,1124.00
2023-05-10T04:28:57.155Z,1156.00
2023-05-10T04:29:57.029Z,1192.00
2023-05-10T04:30:57.052Z,1228.00
2023-05-10T04:31:57.027Z,1276.00
2023-05-10T04:32:57.077Z,1320.00
2023-05-10T04:33:57.021Z,1388.00
2023-05-10T04:34:56.964Z,1452.00
2023-05-10T04:35:57.104Z,1500.00
2023-05-10T04:36:56.960Z,1536.00
2023-05-10T04:37:57.114Z,1544.00
2023-05-10T04:38:56.934Z,1576.00
2023-05-10T04:39:57.541Z,1612.00
2023-05-10T04:40:56.953Z,1576.00
2023-05-10T04:41:56.893Z,1456.00
2023-05-10T04:42:56.926Z,1356.00
2023-05-10T04:43:56.830Z,1272.00
2023-05-10T04:44:56.871Z,1232.00
2023-05-10T04:45:56.866Z,1220.00
2023-05-10T04:46:56.894Z,1252.00
2023-05-10T04:47:56.821Z,1240.00
2023-05-10T04:48:56.759Z,1140.00
2023-05-10T04:49:56.803Z,1056.00
2023-05-10T04:50:56.767Z,1000.00
2023-05-10T04:51:56.743Z,996.00
2023-05-10T04:52:56.787Z,1012.00
2023-05-10T04:54:05.871Z,996.00
2023-05-10T04:54:58.764Z,1032.00
2023-05-10T04:55:56.759Z,1076.00
2023-05-10T04:56:56.781Z,1092.00
2023-05-10T04:57:56.743Z,1072.00
2023-05-10T04:58:56.697Z,1040.00
2023-05-10T04:59:56.741Z,1036.00
2023-05-10T05:00:56.880Z,984.00
2023-05-10T05:01:56.674Z,936.00
2023-05-10T05:02:56.723Z,844.00
2023-05-10T05:03:56.889Z,720.00
2023-05-10T05:04:56.664Z,724.00
2023-05-10T05:05:56.675Z,820.00
2023-05-10T05:06:56.649Z,940.00
2023-05-10T05:07:56.612Z,1016.00
2023-05-10T05:08:56.670Z,964.00
2023-05-10T05:09:56.697Z,932.00
2023-05-10T05:10:56.626Z,988.00
2023-05-10T05:11:56.562Z,1088.00
2023-05-10T05:12:56.602Z,1124.00
2023-05-10T05:13:56.496Z,1068.00
2023-05-10T05:14:56.623Z,1008.00
2023-05-10T05:15:56.617Z,968.00
2023-05-10T05:16:56.493Z,912.00
2023-05-10T05:17:56.524Z,864.00
2023-05-10T05:18:56.512Z,852.00
2023-05-10T05:19:56.487Z,904.00
2023-05-10T05:20:56.469Z,1024.00
2023-05-10T05:21:56.428Z,1124.00
2023-05-10T05:22:56.578Z,1160.00
2023-05-10T05:23:56.402Z,1156.00
2023-05-10T05:24:56.403Z,1148.00
2023-05-10T05:25:56.373Z,1184.00
2023-05-10T05:26:56.428Z,1204.00
2023-05-10T05:27:56.431Z,1244.00
2023-05-10T05:28:56.378Z,1320.00
2023-05-10T05:29:56.348Z,1396.00
2023-05-10T05:30:56.372Z,1420.00
2023-05-10T05:31:56.389Z,1376.00
2023-05-10T05:32:56.369Z,1328.00
2023-05-10T05:33:56.311Z,1332.00
2023-05-10T05:34:56.329Z,1332.00
2023-05-10T05:35:56.328Z,1352.00
2023-05-10T05:36:56.278Z,1448.00
2023-05-10T05:37:56.225Z,1584.00
2023-05-10T05:38:56.312Z,1696.00
2023-05-10T05:39:56.305Z,1820.00
2023-05-10T05:40:56.241Z,2020.00
2023-05-10T05:41:56.226Z,2228.00
2023-05-10T05:42:56.237Z,2356.00
2023-05-10T05:43:56.228Z,2452.00
2023-05-10T05:44:56.193Z,2464.00
2023-05-10T05:45:56.279Z,2372.00
2023-05-10T05:46:57.025Z,2276.00
2023-05-10T05:47:56.261Z,2300.00
2023-05-10T05:48:56.147Z,2300.00
2023-05-10T05:49:56.129Z,2168.00
2023-05-10T05:50:56.135Z,2236.00
2023-05-10T05:51:56.093Z,2556.00
2023-05-10T05:52:56.104Z,2900.00
2023-05-10T05:53:56.132Z,3232.00
2023-05-10T05:54:57.011Z,3388.00
2023-05-10T05:55:56.064Z,3404.00
2023-05-10T05:56:56.115Z,3344.00
2023-05-10T05:57:56.085Z,3228.00
2023-05-10T05:58:56.079Z,3076.00
2023-05-10T05:59:56.088Z,2904.00
2023-05-10T06:00:55.995Z,2952.00
2023-05-10T06:01:56.058Z,2916.00
2023-05-10T06:02:56.101Z,2884.00
2023-05-10T06:03:56.217Z,3032.00
2023-05-10T06:04:55.986Z,3184.00
2023-05-10T06:05:56.030Z,3340.00
2023-05-10T06:06:55.981Z,3364.00
2023-05-10T06:07:56.085Z,3252.00
2023-05-10T06:08:56.465Z,3148.00
2023-05-10T06:09:55.947Z,3020.00
2023-05-10T06:10:55.988Z,2920.00
2023-05-10T06:11:55.903Z,2796.00
2023-05-10T06:12:55.987Z,2700.00
2023-05-10T06:13:56.026Z,2692.00
2023-05-10T06:14:55.937Z,2692.00
2023-05-10T06:15:55.966Z,2688.00
2023-05-10T06:16:56.045Z,2588.00
2023-05-10T06:17:55.895Z,2448.00
2023-05-10T06:18:55.886Z,2332.00
2023-05-10T06:19:55.888Z,2212.00
2023-05-10T06:20:55.871Z,2120.00
2023-05-10T06:21:55.850Z,2060.00
2023-05-10T06:22:55.892Z,2036.00
2023-05-10T06:23:55.791Z,2080.00
2023-05-10T06:24:55.840Z,2172.00
2023-05-10T06:25:55.829Z,2264.00
2023-05-10T06:26:55.763Z,2412.00
2023-05-10T06:28:29.083Z,2596.00
2023-05-10T06:29:28.242Z,2768.00
2023-05-10T06:30:02.168Z,2988.00
2023-05-10T06:30:57.776Z,3180.00
2023-05-10T06:31:55.961Z,3296.00
2023-05-10T06:32:55.740Z,3328.00
2023-05-10T06:33:56.832Z,3400.00
2023-05-10T06:34:56.931Z,3444.00
2023-05-10T06:35:55.706Z,3500.00
2023-05-10T06:36:55.666Z,3604.00
2023-05-10T06:37:55.653Z,3736.00
2023-05-10T06:38:55.654Z,3876.00
2023-05-10T06:39:55.642Z,4000.00
2023-05-10T06:40:55.771Z,4216.00
2023-05-10T06:41:56.657Z,4420.00
2023-05-10T06:42:55.588Z,4452.00
2023-05-10T06:43:55.576Z,4336.00
2023-05-10T06:44:55.607Z,4316.00
2023-05-10T06:45:55.677Z,4476.00
2023-05-10T06:46:55.604Z,4616.00
2023-05-10T06:47:55.615Z,4732.00
2023-05-10T06:48:55.546Z,4952.00
2023-05-10T06:49:55.584Z,5072.00
2023-05-10T06:50:55.531Z,5112.00
2023-05-10T06:51:55.507Z,5276.00
2023-05-10T06:52:55.496Z,5428.00
2023-05-10T06:53:55.522Z,5504.00
2023-05-10T06:54:55.725Z,5532.00
2023-05-10T06:55:55.495Z,5420.00
2023-05-10T06:56:55.471Z,5180.00
2023-05-10T06:57:55.561Z,5120.00
2023-05-10T06:58:56.458Z,5088.00
2023-05-10T06:59:55.446Z,5052.00
2023-05-10T07:00:55.505Z,4936.00
2023-05-10T07:01:55.526Z,4748.00
2023-05-10T07:02:55.446Z,4604.00
2023-05-10T07:03:55.423Z,4536.00
2023-05-10T07:04:55.514Z,4508.00
2023-05-10T07:05:55.411Z,4260.00
2023-05-10T07:06:55.394Z,3908.00
2023-05-10T07:07:55.416Z,3600.00
2023-05-10T07:08:55.383Z,3388.00
2023-05-10T07:09:55.357Z,3232.00
2023-05-10T07:10:55.311Z,3144.00
2023-05-10T07:11:55.327Z,3136.00
2023-05-10T07:12:55.372Z,2984.00
2023-05-10T07:13:55.304Z,2824.00
2023-05-10T07:14:55.285Z,2712.00
2023-05-10T07:15:55.282Z,2632.00
2023-05-10T07:16:55.409Z,2648.00
2023-05-10T07:17:55.441Z,2848.00
2023-05-10T07:18:55.446Z,3216.00
2023-05-10T07:19:55.246Z,3576.00
2023-05-10T07:20:55.273Z,3532.00
2023-05-10T07:21:55.358Z,3600.00
2023-05-10T07:22:55.229Z,4320.00
2023-05-10T07:23:55.587Z,5072.00
2023-05-10T07:24:55.221Z,5592.00
2023-05-10T07:25:55.146Z,6048.00
2023-05-10T07:26:55.222Z,6412.00
2023-05-10T07:27:55.213Z,6744.00
2023-05-10T07:28:55.144Z,6800.00
2023-05-10T07:29:55.253Z,6444.00
2023-05-10T07:30:55.241Z,6060.00
2023-05-10T07:31:57.927Z,6104.00
2023-05-10T07:32:55.180Z,6280.00
2023-05-10T07:33:55.159Z,6164.00
2023-05-10T07:34:55.072Z,6332.00
2023-05-10T07:35:55.141Z,6920.00
2023-05-10T07:36:55.112Z,7840.00
2023-05-10T07:37:55.083Z,8592.00
2023-05-10T07:38:55.043Z,9388.00
2023-05-10T07:39:56.038Z,10216.00
2023-05-10T07:40:55.018Z,10720.00
2023-05-10T07:41:55.053Z,11032.00
2023-05-10T07:42:55.017Z,11516.00
2023-05-10T07:43:54.995Z,11848.00
2023-05-10T07:44:54.977Z,11864.00
2023-05-10T07:45:56.436Z,11604.00
2023-05-10T07:46:55.949Z,11320.00
2023-05-10T07:47:55.000Z,10884.00
2023-05-10T07:48:55.149Z,10312.00
2023-05-10T07:49:54.923Z,9944.00
2023-05-10T07:50:54.949Z,9788.00
2023-05-10T07:51:54.912Z,9476.00
2023-05-10T07:52:55.046Z,9168.00
2023-05-10T07:53:54.853Z,9344.00
2023-05-10T07:54:54.870Z,10484.00
2023-05-10T07:55:54.867Z,11908.00
2023-05-10T07:56:54.877Z,13984.00
2023-05-10T07:57:54.842Z,17312.00
2023-05-10T07:58:54.869Z,23648.00
2023-05-10T07:59:54.857Z,43360.00
2023-05-10T08:00:54.914Z,34816.00
2023-05-10T08:01:55.119Z,38080.00
2023-05-10T08:02:54.842Z,40096.00
2023-05-10T08:03:55.313Z,42048.00
2023-05-10T08:04:55.840Z,45952.00
2023-05-10T08:05:54.758Z,39712.00
2023-05-10T08:06:54.687Z,39264.00
2023-05-10T08:07:54.730Z,40736.00
2023-05-10T08:08:54.717Z,38624.00
2023-05-10T08:09:54.817Z,53184.00
2023-05-10T08:10:55.585Z,66848.00
2023-05-10T08:11:54.811Z,53600.00
2023-05-10T08:12:55.582Z,43680.00
2023-05-10T08:13:54.666Z,39616.00
2023-05-10T08:14:55.136Z,35840.00
2023-05-10T08:15:54.871Z,33792.00
2023-05-10T08:16:54.825Z,36512.00
2023-05-10T08:17:54.654Z,37792.00
2023-05-10T08:18:54.643Z,40832.00
2023-05-10T08:19:54.647Z,43584.00
2023-05-10T08:20:54.712Z,46016.00
2023-05-10T08:21:54.565Z,40832.00
2023-05-10T08:22:55.120Z,42528.00
2023-05-10T08:23:54.552Z,36864.00
2023-05-10T08:24:55.579Z,41312.00
2023-05-10T08:25:54.564Z,43200.00
2023-05-10T08:26:55.930Z,51200.00
2023-05-10T08:27:54.492Z,41984.00
2023-05-10T08:28:54.537Z,51552.00
2023-05-10T08:29:55.364Z,46944.00
2023-05-10T08:30:55.047Z,32000.00
2023-05-10T08:31:54.778Z,36576.00
2023-05-10T08:32:54.411Z,32704.00
2023-05-10T08:33:54.361Z,34112.00
2023-05-10T08:34:54.420Z,28416.00
2023-05-10T08:35:54.553Z,25952.00
2023-05-10T08:36:54.672Z,25888.00
2023-05-10T08:37:54.547Z,27296.00
2023-05-10T08:38:54.623Z,28256.00
2023-05-10T08:39:54.686Z,53184.00
2023-05-10T08:40:55.020Z,38912.00
2023-05-10T08:41:54.413Z,58144.00
2023-05-10T08:42:54.358Z,61152.00
2023-05-10T08:43:54.376Z,46144.00
2023-05-10T08:44:54.525Z,64608.00
2023-05-10T08:45:54.326Z,44704.00
2023-05-10T08:46:54.420Z,42304.00
2023-05-10T08:47:55.144Z,38272.00
2023-05-10T08:48:54.540Z,45760.00
2023-05-10T08:49:54.305Z,72576.00
2023-05-10T08:50:54.305Z,74016.00
2023-05-10T08:51:54.344Z,76256.00
2023-05-10T08:52:54.284Z,80480.00
2023-05-10T08:53:54.289Z,42304.00
2023-05-10T08:54:54.186Z,39392.00
2023-05-10T08:55:55.070Z,37952.00
2023-05-10T08:56:54.190Z,39232.00
2023-05-10T08:57:54.194Z,56640.00
2023-05-10T08:58:54.144Z,58176.00
2023-05-10T08:59:54.154Z,44608.00
2023-05-10T09:00:54.184Z,44128.00
2023-05-10T09:01:54.102Z,49152.00
2023-05-10T09:02:54.235Z,49760.00
2023-05-10T09:03:54.109Z,55872.00
2023-05-10T09:04:54.154Z,41984.00
2023-05-10T09:05:54.169Z,42336.00
2023-05-10T09:06:54.089Z,44416.00
2023-05-10T09:07:54.106Z,57856.00
2023-05-10T09:08:54.058Z,81344.00
2023-05-10T09:09:54.152Z,90144.00
2023-05-10T09:10:54.042Z,78144.00
2023-05-10T09:11:54.005Z,89888.00
2023-05-10T09:12:54.124Z,71392.00
2023-05-10T09:13:54.106Z,66304.00
2023-05-10T09:14:54.084Z,99744.00
2023-05-10T09:15:54.979Z,75168.00
2023-05-10T09:16:54.049Z,74912.00
2023-05-10T09:17:54.011Z,40704.00
2023-05-10T09:18:54.002Z,44160.00
2023-05-10T09:19:53.897Z,45344.00
2023-05-10T09:20:54.052Z,38464.00
2023-05-10T09:21:53.980Z,38208.00
2023-05-10T09:22:54.013Z,56736.00
2023-05-10T09:24:27.353Z,68416.00
2023-05-10T09:24:54.054Z,46976.00
2023-05-10T09:25:53.913Z,33184.00
2023-05-10T09:26:54.910Z,47872.00
2023-05-10T09:27:53.822Z,34560.00
2023-05-10T09:28:53.849Z,47616.00
2023-05-10T09:29:54.010Z,62656.00
2023-05-10T09:30:53.993Z,80224.00
2023-05-10T09:31:53.969Z,81504.00
2023-05-10T09:32:53.854Z,79008.00
2023-05-10T09:33:53.785Z,71072.00
2023-05-10T09:34:53.767Z,66688.00
2023-05-10T09:35:53.860Z,63680.00
2023-05-10T09:36:53.791Z,71040.00
2023-05-10T09:37:53.763Z,33408.00
2023-05-10T09:38:53.984Z,28256.00
2023-05-10T09:39:53.720Z,26176.00
2023-05-10T09:40:53.723Z,25344.00
2023-05-10T09:41:53.699Z,32224.00
2023-05-10T09:42:53.694Z,28320.00
2023-05-10T09:43:53.646Z,20192.00
2023-05-10T09:44:53.644Z,14588.00
2023-05-10T09:45:53.726Z,11476.00
2023-05-10T09:46:53.678Z,10100.00
2023-05-10T09:47:53.740Z,9208.00
2023-05-10T09:48:53.649Z,8476.00
2023-05-10T09:49:54.482Z,7660.00
2023-05-10T09:50:53.641Z,7004.00
2023-05-10T09:51:53.611Z,6708.00
2023-05-10T09:52:53.569Z,6492.00
2023-05-10T09:53:53.606Z,6444.00
2023-05-10T09:54:53.587Z,6700.00
2023-05-10T09:55:54.457Z,7492.00
2023-05-10T09:56:53.548Z,8836.00
2023-05-10T09:57:53.639Z,10408.00
2023-05-10T09:58:53.548Z,12688.00
2023-05-10T09:59:53.519Z,15904.00
2023-05-10T10:00:53.492Z,33696.00
2023-05-10T10:01:53.522Z,34912.00
2023-05-10T10:02:53.789Z,54624.00
2023-05-10T10:03:53.496Z,54016.00
2023-05-10T10:04:53.487Z,85984.00
2023-05-10T10:05:53.445Z,90336.00
2023-05-10T10:06:53.397Z,93152.00
2023-05-10T10:07:53.508Z,93280.00
2023-05-10T10:08:55.609Z,83904.00
2023-05-10T10:09:53.905Z,58496.00
2023-05-10T10:10:53.342Z,42880.00
2023-05-10T10:11:54.564Z,38240.00
2023-05-10T10:12:53.373Z,28512.00
2023-05-10T10:13:53.509Z,39008.00
2023-05-10T10:14:53.351Z,58784.00
2023-05-10T10:15:53.399Z,45088.00
2023-05-10T10:17:05.889Z,48576.00
2023-05-10T10:17:55.465Z,49760.00
2023-05-10T10:18:53.332Z,36736.00
2023-05-10T10:19:53.282Z,74144.00
2023-05-10T10:20:53.366Z,61824.00
2023-05-10T10:21:53.236Z,82016.00
2023-05-10T10:22:53.276Z,81664.00
2023-05-10T10:23:53.262Z,83808.00
2023-05-10T10:24:53.202Z,72512.00
2023-05-10T10:25:53.153Z,71264.00
2023-05-10T10:26:53.173Z,66240.00
2023-05-10T10:27:53.549Z,72512.00
2023-05-10T10:28:53.190Z,37888.00
2023-05-10T10:29:53.189Z,79584.00
2023-05-10T10:30:53.117Z,61664.00
2023-05-10T10:31:53.349Z,65856.00
2023-05-10T10:32:53.660Z,71008.00
2023-05-10T10:33:53.160Z,48608.00
2023-05-10T10:34:53.139Z,38016.00
2023-05-10T10:35:53.126Z,79648.00
2023-05-10T10:36:53.129Z,37632.00
2023-05-10T10:37:53.243Z,68416.00
2023-05-10T10:38:53.066Z,70592.00
2023-05-10T10:39:53.080Z,68224.00
2023-05-10T10:40:53.031Z,64864.00
2023-05-10T10:41:53.016Z,61472.00
2023-05-10T10:42:53.035Z,61312.00
2023-05-10T10:43:53.066Z,71360.00
2023-05-10T10:44:53.011Z,78720.00
2023-05-10T10:45:52.967Z,76832.00
2023-05-10T10:46:53.063Z,72512.00
2023-05-10T10:47:53.024Z,73856.00
2023-05-10T10:48:53.003Z,75840.00
2023-05-10T10:49:53.007Z,73216.00
2023-05-10T10:50:52.971Z,38112.00
2023-05-10T10:51:52.891Z,29344.00
2023-05-10T10:52:52.970Z,29664.00
2023-05-10T10:53:52.941Z,25792.00
2023-05-10T10:54:52.962Z,24416.00
2023-05-10T10:55:53.112Z,23776.00
2023-05-10T10:56:52.931Z,23168.00
2023-05-10T10:57:53.099Z,22240.00
2023-05-10T10:58:52.932Z,20992.00
2023-05-10T10:59:52.855Z,19168.00
2023-05-10T11:00:52.831Z,17312.00
2023-05-10T11:01:52.849Z,15968.00
2023-05-10T11:02:52.925Z,14820.00
2023-05-10T11:03:52.850Z,14264.00
2023-05-10T11:04:52.821Z,14312.00
2023-05-10T11:05:52.795Z,14620.00
2023-05-10T11:06:52.733Z,15168.00
2023-05-10T11:07:52.739Z,15392.00
2023-05-10T11:08:52.762Z,15904.00
2023-05-10T11:09:52.809Z,16352.00
2023-05-10T11:10:52.762Z,16864.00
2023-05-10T11:11:52.780Z,17472.00
2023-05-10T11:12:52.705Z,18176.00
2023-05-10T11:13:52.681Z,18912.00
2023-05-10T11:14:52.755Z,19968.00
2023-05-10T11:15:52.748Z,20864.00
2023-05-10T11:16:52.686Z,21408.00
2023-05-10T11:17:52.668Z,21984.00
2023-05-10T11:18:52.720Z,22464.00
2023-05-10T11:19:52.667Z,23040.00
2023-05-10T11:20:52.654Z,24416.00
2023-05-10T11:21:52.576Z,24352.00
2023-05-10T11:22:52.617Z,24288.00
2023-05-10T11:23:52.540Z,23648.00
2023-05-10T11:24:52.575Z,23424.00
2023-05-10T11:25:52.650Z,23328.00
2023-05-10T11:26:52.634Z,23328.00
2023-05-10T11:27:52.564Z,23232.00
2023-05-10T11:28:52.570Z,22784.00
2023-05-10T11:29:52.505Z,22016.00
2023-05-10T11:30:52.557Z,21504.00
2023-05-10T11:31:52.561Z,22048.00
2023-05-10T11:32:52.531Z,22592.00
2023-05-10T11:33:52.447Z,22880.00
2023-05-10T11:34:52.553Z,24224.00
2023-05-10T11:35:52.500Z,28832.00
2023-05-10T11:36:52.433Z,29408.00
2023-05-10T11:37:52.511Z,42816.00
2023-05-10T11:38:52.468Z,41920.00
2023-05-10T11:39:52.452Z,23008.00
2023-05-10T11:40:52.367Z,19680.00
2023-05-10T11:41:52.393Z,17728.00
2023-05-10T11:42:52.426Z,15968.00
2023-05-10T11:43:52.378Z,14488.00
2023-05-10T11:44:52.437Z,13460.00
2023-05-10T11:45:52.349Z,12776.00
2023-05-10T11:46:52.415Z,12524.00
2023-05-10T11:47:52.374Z,12560.00
2023-05-10T11:48:52.323Z,12672.00
2023-05-10T11:49:52.263Z,12680.00
2023-05-10T11:50:52.520Z,12808.00
2023-05-10T11:51:52.238Z,13036.00
2023-05-10T11:52:52.261Z,13276.00
2023-05-10T11:53:52.308Z,13408.00
2023-05-10T11:54:52.929Z,13548.00
2023-05-10T11:55:52.695Z,13968.00
2023-05-10T11:56:52.292Z,14548.00
2023-05-10T11:57:52.311Z,15680.00
2023-05-10T11:58:52.323Z,16896.00
2023-05-10T11:59:53.009Z,18176.00
2023-05-10T12:00:52.168Z,19520.00
2023-05-10T12:01:52.201Z,20864.00
2023-05-10T12:02:52.196Z,22208.00
2023-05-10T12:03:52.223Z,23680.00
2023-05-10T12:04:52.374Z,25280.00
2023-05-10T12:05:53.073Z,26336.00
2023-05-10T12:06:52.145Z,35008.00
2023-05-10T12:07:52.099Z,34592.00
2023-05-10T12:08:52.125Z,34272.00
2023-05-10T12:09:52.146Z,29984.00
2023-05-10T12:10:52.052Z,33280.00
2023-05-10T12:11:52.087Z,31200.00
2023-05-10T12:12:52.110Z,26016.00
2023-05-10T12:13:52.033Z,24640.00
2023-05-10T12:14:52.086Z,25888.00
2023-05-10T12:15:52.040Z,22720.00
2023-05-10T12:16:51.990Z,20992.00
2023-05-10T12:17:52.059Z,19520.00
2023-05-10T12:18:52.095Z,18464.00